Poinciana, FL

7:06 AM EDT on August 03, 2015 (GMT -0400)
Poinciana 34758 - Rickman | | Change Station
CLOSE
Current Station
Personal Weather Station
Location: Kissimmee, FL
Elevation: 30 ft
Nearby Weather Stations

Elev 30 ft 28.18 °N, 81.49 °W | Updated 13 minutes ago

Overcast
Overcast
75.3 °F
Feels Like 75 °F
N
3.0
Wind Variable Wind from South
Gusts 6.0 mph

Today
High -- | Low -- °F
--% Chance of Precip.
Yesterday
High -- | Low -- °F
Precip. -- in
6:49 AM 8:14 PM
Waning Gibbous, 87% visible
Pressure 29.91 in
Visibility 10.0 miles
Clouds Mostly Cloudy 6500 ft
Overcast 8500 ft
Heat Index 75 °F
Dew Point 72 °F
Humidity 90%
Rainfall 0.00 in
Snow Depth Not available.
UV 0 out of 12
Pollen 2.60 out of 12
Air Quality Not available.
Flu Activity Not available.
METAR KISM 031050Z 16007KT 10SM BKN065 OVC085 24/22 A2991 RMK FIRST

More Conditions Fewer Conditions

Pressure 29.91 in
Visibility 10.0 miles
Clouds Mostly Cloudy 6500 ft
Overcast 8500 ft
Heat Index 75 °F
Dew Point 72 °F
Humidity 90%
Rainfall 0.00 in
Snow Depth Not available.
UV 0 out of 12
Pollen 2.60 out of 12
Air Quality Not available.
Flu Activity Not available.
METAR KISM 031050Z 16007KT 10SM BKN065 OVC085 24/22 A2991 RMK FIRST

More Conditions Fewer Conditions

Nowcast | as of 6:08 am EDT on August 3, 2015

Areas of light to moderate rain and potentially a few storms will begin to move into Lake County early this morning. This rainfall may be able to reach as far east as the Interstate 4 corridor through the morning rush hour. Any storms will produce dangerous cloud to ground lightning and gusty winds. Additional details...including graphics are available online at: http://www.Srh.NOAA.Gov/mlb/blog.Php

×

10-Day Weather Forecast

×

Almanac

Astronomy

Aug. 03, 2015 Rise Set
Actual Time
Civil Twilight
Nautical Twilight
Astronomical Twilight
Moon
Length of Visible Light
Length of Day
Tomorrow will be .
, % of the Moon is Illuminated

Today's Extremes

State Highs State Lows

Community

WunderPhotos

Upload Photos

1,843,610 photos uploaded!

WunderBlogs® & News

Nearby

Air Quality

  Air Quality AQ Index Pollutant
Not available.

Snow Depth

Station Depth Elevation

Earthquake Activity

City Distance Mag. Time & Date
Minimum magnitude displayed is 2.5.

Coastal Water Temperatures

Place Temperature

Stations

Nearby Weather Stations

Station Location Temp. Windchill Dew Point Humidity Wind Precip. Elev Updated Type